National Weather Service Raw Text Product

Displaying AFOS PIL: TAFOTM Received: 2018-08-11 05:20 UTC


174 
FTUS43 KDMX 110520
TAFOTM
TAF
KOTM 110520Z 1106/1206 01003KT P6SM SKC
     FM111100 VRB03KT 5SM BR FEW200
     FM111300 VRB04KT P6SM FEW250=